Time;durP1;ratioP1;P1;durP2;ratioP2;P2;SDS_P1;SDS_P2;PMS_P1;PMS_P2;Temp;Humidity;BMP_temperature;BMP_pressure;BME280_temperature;BME280_humidity;BME280_pressure;Samples;Min_cycle;Max_cycle;Signal;HPM_P1;HPM_P2
2022/01/16 00:11:12;;;;;;;1999.90;999.90;;;;;;;5.35;63.15;101979.69;15620932;28;20046;-64
2022/01/16 00:18:50;;;;;;;1999.90;999.90;;;;;;;5.48;62.53;101988.34;15561964;28;20057;-64
2022/01/16 00:26:24;;;;;;;1999.90;999.90;;;;;;;5.25;62.76;101974.91;15540852;28;20052;-64
2022/01/16 00:33:57;;;;;;;1999.90;999.90;;;;;;;5.38;62.82;101981.91;15558066;28;20519;-64
2022/01/16 00:41:32;;;;;;;1999.90;999.90;;;;;;;5.19;63.26;102000.88;15538774;28;20050;-64
2022/01/16 00:49:05;;;;;;;1999.90;999.90;;;;;;;4.97;62.92;101975.25;15558095;28;20473;-64
2022/01/16 00:56:59;;;;;;;1999.90;999.90;;;;;;;5.04;62.76;101950.97;15575992;28;20034;-64
2022/01/16 01:04:35;;;;;;;1999.90;999.90;;;;;;;5.00;63.07;101955.34;15594032;28;20041;-63
2022/01/16 01:12:26;;;;;;;1999.90;999.90;;;;;;;4.91;63.54;101947.56;15558684;28;20038;-63
2022/01/16 01:20:27;;;;;;;1999.90;999.90;;;;;;;4.77;63.75;101932.50;15618733;28;20046;-63
2022/01/16 01:28:22;;;;;;;1999.90;999.90;;;;;;;4.15;66.18;101921.16;15552865;28;20046;-64
2022/01/16 01:36:00;;;;;;;1999.90;999.90;;;;;;;3.87;67.20;101930.56;15523317;28;20491;-63
2022/01/16 01:51:42;;;;;;;1999.90;999.90;;;;;;;3.69;67.46;101783.47;15598196;28;20134;-64
2022/01/16 01:59:17;;;;;;;1999.90;999.90;;;;;;;3.37;68.49;101821.22;15629826;28;20564;-63
2022/01/16 02:07:06;;;;;;;1999.90;999.90;;;;;;;3.45;68.54;101842.84;15598078;28;20049;-64
2022/01/16 02:15:06;;;;;;;1999.90;999.90;;;;;;;3.42;68.57;101824.03;15589271;28;20096;-63
2022/01/16 02:31:38;;;;;;;1999.90;999.90;;;;;;;3.21;69.07;101830.38;15549815;28;20202;-64
2022/01/16 02:39:14;;;;;;;;;;;;;;;3.48;68.01;101825.75;15597427;28;20084;-63
2022/01/16 02:46:50;;;;;;;1999.90;999.90;;;;;;;3.49;67.55;101830.19;15557624;28;20378;-62
2022/01/16 02:54:44;;;;;;;1999.90;999.90;;;;;;;3.18;68.83;101816.03;15556835;28;20042;-63
2022/01/16 03:02:58;;;;;;;1999.90;999.90;;;;;;;2.67;70.38;101791.63;15608682;28;20096;-63
2022/01/16 03:27:24;;;;;;;1999.90;999.90;;;;;;;2.66;70.46;101746.69;15561888;28;20054;-64
2022/01/16 03:34:56;;;;;;;1999.90;999.90;;;;;;;2.60;70.60;101728.41;15528037;28;20137;-63
2022/01/16 03:42:33;;;;;;;1999.90;999.90;;;;;;;2.82;69.71;101693.44;15544566;28;20045;-63
2022/01/16 03:50:08;;;;;;;1999.90;999.90;;;;;;;2.55;70.32;101679.59;15584010;28;20037;-64
2022/01/16 03:57:42;;;;;;;1999.90;999.90;;;;;;;2.57;70.61;101684.84;15623169;28;20128;-63
2022/01/16 04:05:15;;;;;;;1999.90;999.90;;;;;;;3.02;69.08;101654.25;15622407;28;20037;-63
2022/01/16 04:12:49;;;;;;;1999.90;999.90;;;;;;;2.67;69.71;101646.38;15602334;28;20049;-63
2022/01/16 04:20:22;;;;;;;1999.90;999.90;;;;;;;2.93;69.45;101632.91;15598220;28;20045;-63
2022/01/16 04:27:56;;;;;;;1999.90;999.90;;;;;;;3.00;68.41;101626.06;15585132;28;21305;-63
2022/01/16 04:35:31;;;;;;;1999.90;999.90;;;;;;;2.74;69.46;101611.19;15581053;28;20056;-63
2022/01/16 04:43:48;;;;;;;1999.90;999.90;;;;;;;2.77;69.40;101602.41;15542514;28;20046;-63
2022/01/16 04:51:22;;;;;;;1999.90;999.90;;;;;;;2.32;71.10;101577.94;15594486;28;20103;-63
2022/01/16 04:58:56;;;;;;;1999.90;999.90;;;;;;;2.21;71.50;101579.72;15585132;28;20046;-64
2022/01/16 05:06:29;;;;;;;1999.90;999.90;;;;;;;2.14;72.12;101579.06;15562784;28;20402;-63
2022/01/16 05:21:53;;;;;;;1999.90;999.90;;;;;;;2.08;71.66;101566.31;15538762;28;20049;-63
2022/01/16 05:29:47;;;;;;;1999.90;999.90;;;;;;;2.31;70.79;101557.81;15554528;28;20053;-62
2022/01/16 05:37:21;;;;;;;1999.90;999.90;;;;;;;2.48;70.25;101537.59;15567468;28;20058;-63
2022/01/16 05:44:55;;;;;;;1999.90;999.90;;;;;;;2.51;70.28;101532.41;15598521;28;20076;-64
2022/01/16 05:52:40;;;;;;;1999.90;999.90;;;;;;;2.59;69.32;101526.41;15598436;28;20426;-63
2022/01/16 06:00:24;;;;;;;1999.90;999.90;;;;;;;2.37;69.89;101519.28;15617257;28;20034;-63
2022/01/16 06:08:00;;;;;;;1999.90;999.90;;;;;;;2.53;69.80;101524.72;15597273;28;20056;-63
2022/01/16 06:15:35;;;;;;;1999.90;999.90;;;;;;;2.52;69.55;101516.72;15596570;28;20115;-63
2022/01/16 06:23:08;;;;;;;1999.90;999.90;;;;;;;2.38;69.52;101507.19;15614699;28;20045;-63
2022/01/16 06:30:42;;;;;;;1999.90;999.90;;;;;;;2.27;70.37;101503.50;15592450;28;20461;-63
2022/01/16 06:38:15;;;;;;;1999.90;999.90;;;;;;;2.22;70.55;101489.69;15562029;28;20049;-63
2022/01/16 06:45:49;;;;;;;1999.90;999.90;;;;;;;2.33;69.97;101491.44;15576662;28;20042;-63
2022/01/16 06:53:22;;;;;;;1999.90;999.90;;;;;;;2.39;70.26;101503.34;15586674;28;20048;-62
2022/01/16 07:00:56;;;;;;;1999.90;999.90;;;;;;;2.25;70.31;101502.91;15546295;28;20495;-63
2022/01/16 07:08:28;;;;;;;1999.90;999.90;;;;;;;2.15;70.70;101511.06;15536784;28;20068;-63
2022/01/16 07:16:03;;;;;;;1999.90;999.90;;;;;;;2.42;70.00;101522.94;15624870;28;20064;-63
2022/01/16 07:23:36;;;;;;;1999.90;999.90;;;;;;;2.31;69.73;101518.44;15623975;28;20511;-62
2022/01/16 07:31:10;;;;;;;1999.90;999.90;;;;;;;2.44;69.54;101530.97;15623692;28;20506;-63
2022/01/16 07:38:42;;;;;;;1999.90;999.90;;;;;;;2.14;70.62;101529.50;15605872;28;20045;-62
2022/01/16 07:46:18;;;;;;;1999.90;999.90;;;;;;;2.31;70.67;101555.06;15587126;28;20507;-63
2022/01/16 07:53:52;;;;;;;1999.90;999.90;;;;;;;2.53;70.90;101548.69;15543943;28;20072;-63
2022/01/16 08:01:26;;;;;;;1999.90;999.90;;;;;;;2.67;71.08;101538.91;15546233;28;20134;-64
2022/01/16 08:08:59;;;;;;;1999.90;999.90;;;;;;;2.47;71.41;101536.78;15576898;28;20050;-63
2022/01/16 08:16:33;;;;;;;1999.90;999.90;;;;;;;2.25;72.84;101517.53;15567343;28;20064;-62
2022/01/16 08:24:07;;;;;;;1999.90;999.90;;;;;;;2.42;73.04;101527.63;15583640;28;20049;-63
2022/01/16 08:31:41;;;;;;;1999.90;999.90;;;;;;;2.24;73.72;101521.38;15598653;28;20042;-63
2022/01/16 08:39:14;;;;;;;1999.90;999.90;;;;;;;2.42;73.82;101500.91;15563295;28;20073;-63
2022/01/16 08:46:48;;;;;;;1999.90;999.90;;;;;;;2.66;73.81;101490.41;15590094;28;20071;-63
2022/01/16 08:54:21;;;;;;;1999.90;999.90;;;;;;;3.07;72.55;101494.31;15604238;28;20042;-63
2022/01/16 09:01:55;;;;;;;1999.90;999.90;;;;;;;2.93;72.77;101476.59;15584622;28;20104;-64
2022/01/16 09:09:30;;;;;;;1999.90;999.90;;;;;;;3.26;72.31;101474.59;15539622;28;20093;-64
2022/01/16 09:17:04;;;;;;;1999.90;999.90;;;;;;;3.10;72.41;101465.38;15567756;28;20441;-62
2022/01/16 09:24:37;;;;;;;1999.90;999.90;;;;;;;3.31;72.31;101480.16;15565941;28;20049;-63
2022/01/16 09:32:13;;;;;;;1999.90;999.90;;;;;;;3.66;71.80;101479.53;15580304;28;20487;-63
2022/01/16 09:39:45;;;;;;;1999.90;999.90;;;;;;;3.58;72.00;101480.03;15575743;28;20419;-61
2022/01/16 09:47:20;;;;;;;1999.90;999.90;;;;;;;3.63;71.93;101474.53;15552938;28;20042;-63
2022/01/16 09:54:52;;;;;;;1999.90;999.90;;;;;;;3.83;72.10;101485.69;15558134;28;20482;-62
2022/01/16 10:02:26;;;;;;;1999.90;999.90;;;;;;;4.20;72.10;101488.31;15613430;28;20107;-63
2022/01/16 10:10:09;;;;;;;1999.90;999.90;;;;;;;3.84;72.89;101481.81;15576270;28;20061;-63
2022/01/16 10:17:45;;;;;;;1999.90;999.90;;;;;;;4.25;71.87;101498.53;15648653;28;20095;-61
2022/01/16 10:25:36;;;;;;;1999.90;999.90;;;;;;;3.87;73.85;101500.63;15618181;28;20037;-61
2022/01/16 10:33:14;;;;;;;1999.90;999.90;;;;;;;3.61;74.62;101507.09;15627517;28;20126;-64
2022/01/16 10:40:50;;;;;;;1999.90;999.90;;;;;;;3.98;74.52;101510.59;15575631;28;20068;-64
2022/01/16 10:48:25;;;;;;;1999.90;999.90;;;;;;;3.56;76.42;101515.38;15607804;28;20061;-64
2022/01/16 10:56:00;;;;;;;1999.90;999.90;;;;;;;3.49;77.06;101499.03;15646523;28;20073;-65
2022/01/16 11:03:39;;;;;;;1999.90;999.90;;;;;;;3.71;76.30;101483.13;15681741;28;20115;-65
2022/01/16 11:11:12;;;;;;;1999.90;999.90;;;;;;;3.63;77.56;101466.25;15617728;28;20037;-64
2022/01/16 11:18:49;;;;;;;1999.90;999.90;;;;;;;3.92;75.98;101480.47;15585078;28;20045;-65
2022/01/16 11:26:23;;;;;;;1999.90;999.90;;;;;;;3.95;76.37;101491.78;15592850;28;20486;-65
2022/01/16 11:33:57;;;;;;;1999.90;999.90;;;;;;;4.21;75.36;101487.22;15643475;28;20042;-65
2022/01/16 11:41:34;;;;;;;1999.90;999.90;;;;;;;4.29;75.47;101481.16;15662392;28;20046;-66
2022/01/16 11:49:13;;;;;;;1999.90;999.90;;;;;;;4.12;76.15;101485.25;15588034;28;20093;-66
2022/01/16 11:56:55;;;;;;;1999.90;999.90;;;;;;;4.69;74.96;101493.41;15627466;28;20518;-66
2022/01/16 12:04:59;;;;;;;1999.90;999.90;;;;;;;4.26;76.80;101486.38;15614389;28;20136;-66
2022/01/16 12:12:37;;;;;;;1999.90;999.90;;;;;;;4.89;76.26;101484.25;15622308;28;20055;-65
2022/01/16 12:20:26;;;;;;;1999.90;999.90;;;;;;;4.87;75.90;101479.00;15644474;28;20041;-64
2022/01/16 12:28:00;;;;;;;1999.90;999.90;;;;;;;4.62;76.67;101479.00;15644070;28;20601;-65
2022/01/16 12:36:15;;;;;;;1999.90;999.90;;;;;;;4.92;76.43;101478.19;15616025;28;20053;-65
2022/01/16 12:43:52;;;;;;;1999.90;999.90;;;;;;;5.24;75.20;101466.00;15641964;28;20041;-66
2022/01/16 12:51:28;;;;;;;1999.90;999.90;;;;;;;5.27;74.89;101463.47;15661143;28;20049;-65
2022/01/16 12:59:13;;;;;;;1999.90;999.90;;;;;;;4.86;77.00;101449.69;15644840;28;20057;-67
2022/01/16 13:06:49;;;;;;;1999.90;999.90;;;;;;;5.48;74.71;101464.28;15678194;28;20433;-65
2022/01/16 13:14:25;;;;;;;1999.90;999.90;;;;;;;5.35;75.08;101462.91;15622335;28;20055;-68
2022/01/16 13:22:05;;;;;;;1999.90;999.90;;;;;;;5.28;74.76;101445.78;15616864;28;20048;-65
2022/01/16 13:29:40;;;;;;;1999.90;999.90;;;;;;;5.78;73.03;101447.56;15623076;28;20046;-65
2022/01/16 13:37:17;;;;;;;1999.90;999.90;;;;;;;5.26;74.72;101455.47;15609170;28;20114;-65
2022/01/16 13:44:49;;;;;;;1999.90;999.90;;;;;;;5.48;74.05;101453.19;15599340;28;20076;-64
2022/01/16 13:52:25;;;;;;;1999.90;999.90;;;;;;;5.27;75.64;101454.34;15611875;28;20076;-66
2022/01/16 13:59:59;;;;;;;1999.90;999.90;;;;;;;5.67;73.58;101456.19;15612413;28;20050;-65
2022/01/16 14:07:33;;;;;;;1999.90;999.90;;;;;;;5.68;74.59;101453.13;15595060;28;20073;-65
2022/01/16 14:15:12;;;;;;;1999.90;999.90;;;;;;;5.75;74.22;101442.59;15560523;28;20038;-65
2022/01/16 14:22:47;;;;;;;1999.90;999.90;;;;;;;5.29;76.01;101447.44;15540087;28;20042;-65
2022/01/16 14:30:19;;;;;;;1999.90;999.90;;;;;;;5.51;75.74;101461.75;15534925;28;20044;-65
2022/01/16 14:37:54;;;;;;;1999.90;999.90;;;;;;;5.38;76.06;101478.97;15593009;28;20077;-64
2022/01/16 14:45:28;;;;;;;1999.90;999.90;;;;;;;5.28;76.31;101472.63;15593763;28;20041;-64
2022/01/16 14:53:05;;;;;;;1999.90;999.90;;;;;;;5.72;75.17;101468.06;15594745;28;20091;-64
2022/01/16 15:00:38;;;;;;;1999.90;999.90;;;;;;;5.78;75.21;101468.88;15587227;28;20044;-64
2022/01/16 15:08:12;;;;;;;1999.90;999.90;;;;;;;5.63;76.06;101472.53;15633517;28;20132;-64
2022/01/16 15:15:44;;;;;;;1999.90;999.90;;;;;;;5.23;78.05;101467.94;15584303;28;20042;-64
2022/01/16 15:23:19;;;;;;;1999.90;999.90;;;;;;;5.55;76.90;101481.44;15601511;28;20038;-65
2022/01/16 15:30:52;;;;;;;1999.90;999.90;;;;;;;5.77;76.42;101490.22;15582799;28;20529;-65
2022/01/16 15:38:29;;;;;;;1999.90;999.90;;;;;;;5.92;76.46;101477.44;15598139;28;20072;-64
2022/01/16 15:46:02;;;;;;;1999.90;999.90;;;;;;;5.54;77.34;101487.25;15552283;28;20300;-65
2022/01/16 15:53:36;;;;;;;1999.90;999.90;;;;;;;6.02;75.81;101486.53;15598504;28;20053;-65
2022/01/16 16:01:09;;;;;;;1999.90;999.90;;;;;;;5.50;77.84;101485.00;15627801;28;20045;-65
2022/01/16 16:08:44;;;;;;;1999.90;999.90;;;;;;;5.93;76.13;101488.22;15620877;28;20041;-64
2022/01/16 16:16:16;;;;;;;1999.90;999.90;;;;;;;6.13;75.97;101515.03;15618259;28;20050;-64
2022/01/16 16:23:50;;;;;;;1999.90;999.90;;;;;;;6.05;76.16;101501.78;15613520;28;20539;-64
2022/01/16 16:31:23;;;;;;;1999.90;999.90;;;;;;;6.11;75.72;101517.25;15558365;28;20053;-64
2022/01/16 16:38:57;;;;;;;1999.90;999.90;;;;;;;6.19;75.54;101508.38;15557685;28;20096;-64
2022/01/16 16:46:30;;;;;;;1999.90;999.90;;;;;;;6.34;75.13;101513.81;15522729;28;20049;-64
2022/01/16 16:54:04;;;;;;;1999.90;999.90;;;;;;;6.22;75.82;101507.78;15556358;28;20165;-64
2022/01/16 17:01:37;;;;;;;1999.90;999.90;;;;;;;6.35;75.30;101503.56;15567254;28;20094;-66
2022/01/16 17:09:11;;;;;;;1999.90;999.90;;;;;;;6.28;76.09;101508.59;15588388;28;20079;-65
2022/01/16 17:16:49;;;;;;;1999.90;999.90;;;;;;;6.19;76.12;101518.63;15632239;28;20127;-65
2022/01/16 17:24:23;;;;;;;1999.90;999.90;;;;;;;6.56;74.54;101527.28;15557027;28;20046;-64
2022/01/16 17:31:56;;;;;;;1999.90;999.90;;;;;;;6.32;76.34;101527.13;15575373;28;20057;-65
2022/01/16 17:39:30;;;;;;;1999.90;999.90;;;;;;;6.39;76.01;101520.47;15582099;28;20057;-64
2022/01/16 17:47:04;;;;;;;1999.90;999.90;;;;;;;6.72;74.77;101522.47;15563719;28;20069;-66
2022/01/16 17:54:38;;;;;;;1999.90;999.90;;;;;;;6.51;75.91;101532.88;15554508;28;20045;-63
2022/01/16 18:02:13;;;;;;;1999.90;999.90;;;;;;;6.79;76.35;101516.63;15537040;28;20042;-66
2022/01/16 18:09:48;;;;;;;1999.90;999.90;;;;;;;6.53;78.18;101522.31;15536693;28;20450;-65
2022/01/16 18:17:20;;;;;;;1999.90;999.90;;;;;;;6.54;78.61;101515.66;15614535;28;20060;-65
2022/01/16 18:24:55;;;;;;;1999.90;999.90;;;;;;;6.68;78.05;101512.25;15597482;28;20413;-65
2022/01/16 18:32:28;;;;;;;1999.90;999.90;;;;;;;7.08;76.37;101506.38;15616114;28;20073;-66
2022/01/16 18:40:04;;;;;;;1999.90;999.90;;;;;;;7.02;76.65;101513.09;15611396;28;20049;-64
2022/01/16 18:47:38;;;;;;;1999.90;999.90;;;;;;;7.02;76.80;101526.97;15650829;28;20065;-63
2022/01/16 18:55:12;;;;;;;1999.90;999.90;;;;;;;6.80;77.10;101521.03;15608125;28;20052;-64
2022/01/16 19:02:45;;;;;;;1999.90;999.90;;;;;;;6.75;77.15;101527.44;15625673;28;20112;-64
2022/01/16 19:10:20;;;;;;;1999.90;999.90;;;;;;;6.85;77.17;101515.44;15627735;28;20080;-63
2022/01/16 19:17:52;;;;;;;1999.90;999.90;;;;;;;6.74;77.18;101509.13;15647127;28;20530;-64
2022/01/16 19:25:28;;;;;;;1999.90;999.90;;;;;;;6.86;76.63;101512.38;15608037;28;20497;-64
2022/01/16 19:33:00;;;;;;;1999.90;999.90;;;;;;;7.11;75.83;101530.78;15600810;28;20128;-65
2022/01/16 19:40:36;;;;;;;1999.90;999.90;;;;;;;7.24;75.11;101519.00;15637970;28;20037;-64
2022/01/16 19:48:09;;;;;;;1999.90;999.90;;;;;;;7.01;75.63;101528.09;15636007;28;20414;-65
2022/01/16 19:55:43;;;;;;;1999.90;999.90;;;;;;;6.84;75.75;101528.50;15627685;28;20128;-65
2022/01/16 20:03:17;;;;;;;1999.90;999.90;;;;;;;7.22;74.78;101531.53;15611853;28;20453;-64
2022/01/16 20:10:52;;;;;;;1999.90;999.90;;;;;;;7.24;74.64;101546.78;15628116;28;20494;-65
2022/01/16 20:18:27;;;;;;;1999.90;999.90;;;;;;;7.23;74.33;101527.63;15580388;28;20073;-65
2022/01/16 20:26:03;;;;;;;1999.90;999.90;;;;;;;7.27;74.79;101525.91;15602334;28;20111;-64
2022/01/16 20:33:35;;;;;;;1999.90;999.90;;;;;;;7.20;75.53;101537.38;15593354;28;20583;-65
2022/01/16 20:41:10;;;;;;;1999.90;999.90;;;;;;;7.30;75.36;101524.53;15559536;28;20046;-63
2022/01/16 20:48:46;;;;;;;1999.90;999.90;;;;;;;7.42;74.10;101536.91;15540947;28;20049;-63
2022/01/16 20:56:20;;;;;;;1999.90;999.90;;;;;;;7.27;74.56;101534.25;15557278;28;20049;-64
2022/01/16 21:03:54;;;;;;;1999.90;999.90;;;;;;;7.00;75.28;101540.31;15557491;28;20046;-61
2022/01/16 21:11:43;;;;;;;1999.90;999.90;;;;;;;7.28;74.12;101535.91;15597361;28;20049;-63
2022/01/16 21:19:19;;;;;;;1999.90;999.90;;;;;;;7.63;73.06;101548.66;15617698;28;20069;-64
2022/01/16 21:26:54;;;;;;;1999.90;999.90;;;;;;;7.21;75.37;101541.81;15616828;28;20496;-65
2022/01/16 21:34:34;;;;;;;1999.90;999.90;;;;;;;7.29;76.01;101539.50;15614895;28;20068;-64
2022/01/16 21:42:14;;;;;;;1999.90;999.90;;;;;;;7.36;76.88;101543.63;15583314;28;20132;-65
2022/01/16 21:49:47;;;;;;;1999.90;999.90;;;;;;;7.34;77.05;101556.97;15598769;28;20141;-66
2022/01/16 21:57:21;;;;;;;1999.90;999.90;;;;;;;7.23;78.68;101556.22;15616880;28;20068;-67
2022/01/16 22:04:54;;;;;;;1999.90;999.90;;;;;;;7.10;79.17;101544.97;15599722;28;20057;-61
2022/01/16 22:12:31;;;;;;;1999.90;999.90;;;;;;;7.29;79.11;101557.00;15562250;28;20042;-62
2022/01/16 22:20:05;;;;;;;1999.90;999.90;;;;;;;6.79;80.92;101522.16;15548501;28;20085;-63
2022/01/16 22:27:39;;;;;;;1999.90;999.90;;;;;;;7.01;81.13;101522.53;15533093;28;20453;-65
2022/01/16 22:35:26;;;;;;;1999.90;999.90;;;;;;;7.19;80.15;101529.31;15566311;28;20053;-64
2022/01/16 22:43:09;;;;;;;1999.90;999.90;;;;;;;7.11;80.92;101539.13;15548097;28;20041;-65
2022/01/16 22:50:42;;;;;;;1999.90;999.90;;;;;;;7.09;80.89;101554.41;15547321;28;20046;-64
2022/01/16 22:58:16;;;;;;;1999.90;999.90;;;;;;;7.28;80.66;101538.69;15546138;28;20506;-64
2022/01/16 23:05:49;;;;;;;1999.90;999.90;;;;;;;7.40;80.99;101533.59;15552112;28;20038;-64
2022/01/16 23:13:41;;;;;;;1999.90;999.90;;;;;;;7.21;81.30;101518.78;15605713;28;20045;-64
2022/01/16 23:21:18;;;;;;;1999.90;999.90;;;;;;;7.09;82.30;101532.22;15603746;28;20136;-64
2022/01/16 23:28:52;;;;;;;1999.90;999.90;;;;;;;7.60;80.58;101527.00;15605910;28;20117;-63
2022/01/16 23:36:27;;;;;;;1999.90;999.90;;;;;;;7.18;82.21;101542.38;15622289;28;20072;-63
2022/01/16 23:44:06;;;;;;;1999.90;999.90;;;;;;;7.49;81.31;101537.38;15621836;28;20052;-64
2022/01/16 23:51:58;;;;;;;1999.90;999.90;;;;;;;7.41;81.04;101526.91;15620113;28;20068;-63
2022/01/16 23:59:36;;;;;;;1999.90;999.90;;;;;;;7.50;80.77;101522.38;15604207;28;20049;-64
